createdAt,value
2022-10-13T00:01:09.136Z,7.78
2022-10-13T00:03:37.316Z,7.75
2022-10-13T00:06:09.581Z,7.73
2022-10-13T00:08:37.218Z,7.74
2022-10-13T00:11:11.799Z,7.71
2022-10-13T00:13:38.459Z,7.71
2022-10-13T00:16:08.089Z,7.70
2022-10-13T00:18:34.730Z,7.70
2022-10-13T00:21:01.771Z,7.71
2022-10-13T00:23:28.542Z,7.75
2022-10-13T00:25:56.542Z,7.76
2022-10-13T00:28:23.154Z,7.81
2022-10-13T00:30:49.693Z,7.85
2022-10-13T00:33:24.869Z,7.89
2022-10-13T00:35:52.084Z,7.94
2022-10-13T00:38:24.001Z,7.98
2022-10-13T00:40:53.833Z,8.02
2022-10-13T00:43:23.606Z,8.04
2022-10-13T00:45:51.147Z,8.03
2022-10-13T00:48:20.980Z,8.01
2022-10-13T00:50:48.523Z,7.96
2022-10-13T00:53:18.175Z,7.92
2022-10-13T00:55:47.047Z,7.88
2022-10-13T00:58:19.746Z,7.83
2022-10-13T01:00:48.993Z,7.80
2022-10-13T01:03:17.608Z,7.77
2022-10-13T01:05:44.726Z,7.75
2022-10-13T01:08:12.345Z,7.73
2022-10-13T01:11:04.044Z,7.72
2022-10-13T01:13:38.245Z,7.69
2022-10-13T01:16:16.770Z,7.68
2022-10-13T01:18:59.830Z,7.71
2022-10-13T01:21:58.360Z,7.73
2022-10-13T01:24:40.639Z,7.76
2022-10-13T01:27:17.736Z,7.79
2022-10-13T01:30:06.150Z,7.78
2022-10-13T01:33:16.638Z,7.76
2022-10-13T01:35:49.338Z,7.78
2022-10-13T01:39:05.080Z,7.79
2022-10-13T01:41:41.293Z,7.82
2022-10-13T01:44:23.505Z,7.87
2022-10-13T01:46:54.701Z,7.91
2022-10-13T01:49:28.951Z,7.97
2022-10-13T01:52:02.538Z,8.04
2022-10-13T01:54:29.135Z,8.10
2022-10-13T01:56:59.280Z,8.15
2022-10-13T01:59:30.580Z,8.20
2022-10-13T02:02:10.145Z,8.26
2022-10-13T02:04:56.804Z,8.29
2022-10-13T02:07:59.018Z,8.33
2022-10-13T02:10:33.195Z,8.38
2022-10-13T02:13:03.823Z,8.39
2022-10-13T02:15:48.078Z,8.43
2022-10-13T02:18:22.284Z,8.47
2022-10-13T02:20:50.358Z,8.50
2022-10-13T02:23:18.791Z,8.51
2022-10-13T02:25:49.059Z,8.51
2022-10-13T02:28:16.757Z,8.52
2022-10-13T02:30:45.662Z,8.53
2022-10-13T02:33:12.687Z,8.54
2022-10-13T02:35:39.358Z,8.55
2022-10-13T02:38:06.286Z,8.57
2022-10-13T02:40:33.084Z,8.58
2022-10-13T02:42:59.725Z,8.57
2022-10-13T02:45:26.765Z,8.57
2022-10-13T02:47:55.128Z,8.56
2022-10-13T02:50:21.867Z,8.55
2022-10-13T02:52:50.509Z,8.54
2022-10-13T02:55:17.052Z,8.53
2022-10-13T02:57:45.659Z,8.52
2022-10-13T03:00:13.023Z,8.52
2022-10-13T03:02:39.649Z,8.54
2022-10-13T03:05:06.429Z,8.56
2022-10-13T03:07:33.072Z,8.60
2022-10-13T03:09:59.863Z,8.63
2022-10-13T03:12:26.441Z,8.66
2022-10-13T03:14:53.133Z,8.70
2022-10-13T03:17:20.402Z,8.72
2022-10-13T03:19:47.079Z,8.74
2022-10-13T03:22:17.479Z,8.74
2022-10-13T03:24:45.178Z,8.74
2022-10-13T03:27:11.816Z,8.74
2022-10-13T03:29:38.922Z,8.73
2022-10-13T03:32:05.684Z,8.72
2022-10-13T03:34:32.472Z,8.69
2022-10-13T03:36:59.108Z,8.66
2022-10-13T03:39:25.718Z,8.63
2022-10-13T03:41:52.307Z,8.59
2022-10-13T03:44:18.877Z,8.56
2022-10-13T03:46:46.433Z,8.51
2022-10-13T03:49:13.013Z,8.48
2022-10-13T03:51:39.601Z,8.44
2022-10-13T03:54:06.095Z,8.43
2022-10-13T03:56:32.759Z,8.45
2022-10-13T03:59:00.913Z,8.47
2022-10-13T04:01:29.768Z,8.50
2022-10-13T04:03:57.843Z,8.55
2022-10-13T04:06:26.166Z,8.59
2022-10-13T04:08:53.031Z,8.63
2022-10-13T04:11:20.489Z,8.66
2022-10-13T04:13:51.431Z,8.70
2022-10-13T04:16:21.637Z,8.72
2022-10-13T04:18:54.013Z,8.75
2022-10-13T04:21:21.820Z,8.78
2022-10-13T04:23:48.666Z,8.79
2022-10-13T04:26:21.954Z,8.82
2022-10-13T04:28:50.725Z,8.85
2022-10-13T04:31:18.417Z,8.88
2022-10-13T04:33:45.851Z,8.90
2022-10-13T04:36:14.071Z,8.93
2022-10-13T04:38:41.770Z,8.96
2022-10-13T04:41:10.431Z,8.99
2022-10-13T04:43:37.027Z,9.03
2022-10-13T04:46:09.765Z,9.03
2022-10-13T04:48:36.367Z,9.07
2022-10-13T04:51:14.198Z,9.08
2022-10-13T04:53:41.051Z,9.10
2022-10-13T04:56:16.315Z,9.11
2022-10-13T04:58:44.522Z,9.12
2022-10-13T05:01:22.167Z,9.12
2022-10-13T05:03:57.203Z,9.11
2022-10-13T05:06:35.556Z,9.10
2022-10-13T05:09:02.269Z,9.08
2022-10-13T05:11:29.503Z,9.08
2022-10-13T05:13:57.341Z,9.06
2022-10-13T05:16:24.501Z,9.03
2022-10-13T05:18:54.785Z,9.00
2022-10-13T05:21:28.073Z,8.97
2022-10-13T05:23:56.396Z,8.96
2022-10-13T05:26:29.152Z,8.96
2022-10-13T05:28:57.281Z,8.92
2022-10-13T05:31:26.795Z,8.91
2022-10-13T05:33:53.731Z,8.90
2022-10-13T05:36:35.134Z,8.91
2022-10-13T05:39:07.568Z,8.92
2022-10-13T05:41:34.241Z,8.93
2022-10-13T05:44:08.652Z,8.95
2022-10-13T05:46:40.338Z,8.97
2022-10-13T05:49:06.825Z,9.01
2022-10-13T05:51:46.870Z,9.04
2022-10-13T05:54:24.341Z,9.06
2022-10-13T05:56:56.297Z,9.11
2022-10-13T05:59:27.338Z,9.14
2022-10-13T06:01:55.811Z,9.16
2022-10-13T06:04:30.327Z,9.17
2022-10-13T06:06:57.233Z,9.19
2022-10-13T06:09:24.940Z,9.17
2022-10-13T06:11:51.508Z,9.15
2022-10-13T06:14:18.011Z,9.14
2022-10-13T06:16:44.558Z,9.13
2022-10-13T06:19:11.213Z,9.14
2022-10-13T06:21:37.767Z,9.16
2022-10-13T06:24:04.657Z,9.18
2022-10-13T06:26:31.301Z,9.22
2022-10-13T06:28:59.709Z,9.28
2022-10-13T06:31:27.642Z,9.33
2022-10-13T06:33:54.247Z,9.40
2022-10-13T06:36:20.964Z,9.47
2022-10-13T06:38:47.769Z,9.53
2022-10-13T06:41:16.997Z,9.62
2022-10-13T06:43:43.874Z,9.71
2022-10-13T06:46:12.221Z,9.80
2022-10-13T06:48:39.248Z,9.90
2022-10-13T06:51:08.921Z,10.01
2022-10-13T06:53:35.857Z,10.12
2022-10-13T06:56:04.612Z,10.23
2022-10-13T06:58:31.588Z,10.34
2022-10-13T07:00:58.232Z,10.44
2022-10-13T07:03:25.373Z,10.54
2022-10-13T07:05:52.065Z,10.62
2022-10-13T07:08:19.121Z,10.70
2022-10-13T07:10:45.733Z,10.78
2022-10-13T07:13:12.397Z,10.85
2022-10-13T07:15:40.126Z,10.95
2022-10-13T07:18:07.454Z,11.03
2022-10-13T07:20:34.744Z,11.11
2022-10-13T07:23:01.340Z,11.20
2022-10-13T07:25:27.868Z,11.29
2022-10-13T07:27:54.640Z,11.37
2022-10-13T07:30:23.853Z,11.47
2022-10-13T07:32:50.437Z,11.58
2022-10-13T07:35:17.317Z,11.67
2022-10-13T07:37:43.916Z,11.76
2022-10-13T07:40:11.115Z,11.84
2022-10-13T07:42:37.614Z,11.93
2022-10-13T07:45:04.573Z,12.00
2022-10-13T07:47:31.161Z,12.09
2022-10-13T07:49:57.669Z,12.19
2022-10-13T07:52:24.260Z,12.25
2022-10-13T07:54:51.491Z,12.32
2022-10-13T07:57:18.430Z,12.38
2022-10-13T07:59:45.073Z,12.46
2022-10-13T08:02:13.092Z,12.52
2022-10-13T08:04:39.875Z,12.52
2022-10-13T08:07:06.689Z,12.52
2022-10-13T08:09:34.017Z,12.52
2022-10-13T08:12:02.231Z,12.53
2022-10-13T08:14:30.044Z,12.53
2022-10-13T08:16:57.777Z,12.52
2022-10-13T08:19:26.439Z,12.50
2022-10-13T08:22:00.672Z,12.52
2022-10-13T08:24:29.469Z,12.56
2022-10-13T08:26:56.067Z,12.58
2022-10-13T08:29:23.901Z,12.64
2022-10-13T08:31:53.075Z,12.72
2022-10-13T08:34:20.787Z,12.76
2022-10-13T08:36:47.452Z,12.81
2022-10-13T08:39:17.092Z,12.87
2022-10-13T08:41:44.185Z,12.92
2022-10-13T08:47:38.043Z,12.98
2022-10-13T08:50:13.235Z,13.03
2022-10-13T08:52:47.441Z,13.12
2022-10-13T08:55:26.042Z,13.23
2022-10-13T08:57:52.966Z,13.41
2022-10-13T09:00:25.231Z,13.62
2022-10-13T09:02:52.736Z,13.79
2022-10-13T09:05:37.728Z,13.93
2022-10-13T09:08:13.066Z,14.06
2022-10-13T09:10:59.939Z,14.19
2022-10-13T09:13:27.221Z,14.31
2022-10-13T09:15:54.094Z,14.46
2022-10-13T09:18:29.395Z,14.63
2022-10-13T09:21:19.554Z,14.82
2022-10-13T09:23:46.614Z,15.00
2022-10-13T09:26:19.964Z,15.14
2022-10-13T09:28:47.913Z,15.25
2022-10-13T09:31:28.924Z,15.34
2022-10-13T09:34:14.314Z,15.44
2022-10-13T09:37:03.355Z,15.60
2022-10-13T09:39:31.641Z,15.85
2022-10-13T09:42:20.135Z,16.10
2022-10-13T09:44:48.437Z,16.25
2022-10-13T09:47:21.980Z,16.36
2022-10-13T09:50:06.506Z,16.40
2022-10-13T09:52:34.754Z,16.32
2022-10-13T09:55:01.773Z,16.26
2022-10-13T09:57:45.150Z,16.21
2022-10-13T10:00:22.721Z,16.16
2022-10-13T10:03:02.031Z,16.15
2022-10-13T10:05:36.469Z,16.10
2022-10-13T10:08:12.833Z,16.07
2022-10-13T10:10:41.211Z,16.10
2022-10-13T10:13:15.060Z,16.11
2022-10-13T10:16:02.766Z,16.07
2022-10-13T10:18:39.534Z,16.15
2022-10-13T10:21:12.136Z,16.45
2022-10-13T10:24:01.121Z,16.74
2022-10-13T10:26:48.905Z,17.00
2022-10-13T10:29:50.565Z,17.27
2022-10-13T10:32:47.163Z,17.33
2022-10-13T10:35:45.156Z,17.42
2022-10-13T10:38:36.622Z,17.46
2022-10-13T10:41:45.115Z,17.47
2022-10-13T10:44:16.116Z,17.50
2022-10-13T10:46:47.373Z,17.53
2022-10-13T10:49:19.869Z,17.58
2022-10-13T10:51:46.731Z,17.66
2022-10-13T10:54:27.362Z,17.64
2022-10-13T10:57:00.747Z,17.56
2022-10-13T10:59:59.471Z,17.57
2022-10-13T11:03:06.368Z,17.56
2022-10-13T11:05:59.299Z,17.57
2022-10-13T11:08:40.921Z,17.54
2022-10-13T11:11:25.098Z,17.53
2022-10-13T11:14:06.916Z,17.59
2022-10-13T11:16:40.688Z,17.59
2022-10-13T11:19:32.810Z,17.58
2022-10-13T11:21:59.213Z,17.57
2022-10-13T11:24:39.385Z,17.59
2022-10-13T11:27:11.372Z,17.58
2022-10-13T11:29:44.030Z,17.57
2022-10-13T11:32:34.791Z,17.52
2022-10-13T11:35:05.615Z,17.49
2022-10-13T11:38:07.828Z,17.47
2022-10-13T11:40:46.730Z,17.44
2022-10-13T11:43:40.387Z,17.44
2022-10-13T11:46:21.756Z,17.46
2022-10-13T11:49:13.032Z,17.49
2022-10-13T11:51:46.743Z,17.52
2022-10-13T11:54:19.248Z,17.54
2022-10-13T11:56:55.077Z,17.48
2022-10-13T11:59:33.405Z,17.45
2022-10-13T12:02:13.957Z,17.44
2022-10-13T12:04:46.570Z,17.43
2022-10-13T12:07:15.693Z,17.42
2022-10-13T12:09:56.824Z,17.38
2022-10-13T12:12:27.421Z,17.33
2022-10-13T12:14:58.823Z,17.29
2022-10-13T12:17:35.311Z,17.28
2022-10-13T12:20:19.723Z,17.22
2022-10-13T12:22:50.238Z,17.21
2022-10-13T12:25:19.816Z,17.19
2022-10-13T12:27:49.413Z,17.17
2022-10-13T12:30:28.539Z,17.16
2022-10-13T12:32:57.712Z,17.18
2022-10-13T12:35:27.457Z,17.27
2022-10-13T12:37:55.813Z,17.40
2022-10-13T12:40:23.692Z,17.53
2022-10-13T12:42:50.706Z,17.66
2022-10-13T12:45:23.858Z,17.78
2022-10-13T12:47:52.743Z,17.88
2022-10-13T12:50:25.335Z,17.93
2022-10-13T12:52:54.983Z,17.95
2022-10-13T12:55:23.055Z,17.96
2022-10-13T12:57:51.496Z,17.96
2022-10-13T13:00:26.766Z,18.00
2022-10-13T13:02:55.627Z,18.02
2022-10-13T13:05:34.082Z,18.06
2022-10-13T13:08:22.266Z,18.10
2022-10-13T13:10:55.825Z,18.12
2022-10-13T13:13:24.057Z,18.16
2022-10-13T13:15:51.655Z,18.15
2022-10-13T13:18:27.257Z,18.17
2022-10-13T13:20:54.719Z,18.20
2022-10-13T13:23:23.313Z,18.22
2022-10-13T13:26:22.220Z,18.18
2022-10-13T13:28:56.483Z,18.16
2022-10-13T13:31:25.096Z,18.14
2022-10-13T13:33:52.724Z,18.19
2022-10-13T13:36:24.437Z,18.22
2022-10-13T13:38:54.526Z,18.28
2022-10-13T13:41:22.137Z,18.29
2022-10-13T13:43:48.722Z,18.28
2022-10-13T13:46:22.210Z,18.31
2022-10-13T13:48:49.263Z,18.40
2022-10-13T13:51:16.099Z,18.48
2022-10-13T13:53:44.330Z,18.51
2022-10-13T13:56:14.611Z,18.55
2022-10-13T13:58:41.332Z,18.60
2022-10-13T14:01:08.116Z,18.64
2022-10-13T14:03:34.925Z,18.66
2022-10-13T14:06:01.472Z,18.62
2022-10-13T14:08:32.832Z,18.57
2022-10-13T14:11:00.349Z,18.53
2022-10-13T14:13:26.898Z,18.43
2022-10-13T14:16:01.065Z,18.40
2022-10-13T14:18:28.611Z,18.36
2022-10-13T14:20:55.149Z,18.34
2022-10-13T14:23:21.659Z,18.37
2022-10-13T14:25:48.319Z,18.41
2022-10-13T14:28:18.411Z,18.47
2022-10-13T14:30:45.319Z,18.49
2022-10-13T14:33:11.925Z,18.49
2022-10-13T14:35:38.508Z,18.46
2022-10-13T14:38:06.039Z,18.43
2022-10-13T14:40:33.688Z,18.40
2022-10-13T14:43:00.387Z,18.39
2022-10-13T14:45:27.291Z,18.38
2022-10-13T14:47:53.875Z,18.36
2022-10-13T14:50:20.493Z,18.34
2022-10-13T14:52:51.758Z,18.35
2022-10-13T14:55:18.656Z,18.34
2022-10-13T14:57:45.246Z,18.35
2022-10-13T15:00:13.595Z,18.31
2022-10-13T15:02:40.359Z,18.30
2022-10-13T15:05:07.211Z,18.28
2022-10-13T15:07:36.806Z,18.27
2022-10-13T15:10:06.656Z,18.20
2022-10-13T15:12:34.183Z,18.17
2022-10-13T15:15:00.725Z,18.12
2022-10-13T15:17:27.971Z,18.04
2022-10-13T15:19:54.553Z,17.97
2022-10-13T15:22:21.656Z,17.90
2022-10-13T15:24:48.278Z,17.87
2022-10-13T15:27:14.758Z,17.86
2022-10-13T15:29:41.312Z,17.83
2022-10-13T15:32:18.967Z,17.79
2022-10-13T15:34:52.180Z,17.73
2022-10-13T15:37:18.722Z,17.71
2022-10-13T15:39:45.327Z,17.67
2022-10-13T15:42:12.368Z,17.59
2022-10-13T15:47:25.531Z,17.39
2022-10-13T15:49:52.191Z,17.31
2022-10-13T15:52:18.913Z,17.21
2022-10-13T15:54:45.741Z,17.11
2022-10-13T15:57:12.505Z,17.02
2022-10-13T15:59:39.044Z,16.94
2022-10-13T16:02:05.566Z,16.87
2022-10-13T16:04:37.151Z,16.79
2022-10-13T16:07:04.403Z,16.73
2022-10-13T16:09:31.216Z,16.69
2022-10-13T16:11:57.749Z,16.64
2022-10-13T16:14:24.278Z,16.61
2022-10-13T16:16:53.513Z,16.54
2022-10-13T16:19:20.462Z,16.49
2022-10-13T16:21:47.075Z,16.44
2022-10-13T16:24:14.753Z,16.38
2022-10-13T16:26:41.265Z,16.35
2022-10-13T16:29:07.880Z,16.30
2022-10-13T16:31:35.073Z,16.24
2022-10-13T16:34:02.207Z,16.21
2022-10-13T16:36:28.752Z,16.18
2022-10-13T16:38:56.318Z,16.15
2022-10-13T16:41:23.959Z,16.13
2022-10-13T16:43:50.711Z,16.08
2022-10-13T16:46:21.890Z,16.04
2022-10-13T16:48:48.766Z,15.96
2022-10-13T16:51:21.208Z,15.89
2022-10-13T16:53:53.023Z,15.84
2022-10-13T16:56:22.266Z,15.78
2022-10-13T16:58:50.219Z,15.72
2022-10-13T17:01:16.953Z,15.67
2022-10-13T17:03:46.303Z,15.63
2022-10-13T17:06:14.446Z,15.58
2022-10-13T17:08:42.463Z,15.54
2022-10-13T17:11:10.851Z,15.50
2022-10-13T17:13:37.467Z,15.46
2022-10-13T17:16:04.267Z,15.43
2022-10-13T17:18:31.225Z,15.41
2022-10-13T17:21:00.657Z,15.43
2022-10-13T17:23:28.433Z,15.42
2022-10-13T17:26:00.078Z,15.40
2022-10-13T17:28:26.680Z,15.42
2022-10-13T17:31:07.072Z,15.41
2022-10-13T17:33:36.894Z,15.41
2022-10-13T17:36:08.956Z,15.40
2022-10-13T17:38:36.811Z,15.39
2022-10-13T17:41:06.185Z,15.39
2022-10-13T17:43:34.670Z,15.36
2022-10-13T17:46:34.929Z,15.35
2022-10-13T17:49:00.768Z,15.35
2022-10-13T17:51:27.892Z,15.34
2022-10-13T17:53:54.656Z,15.33
2022-10-13T17:56:24.242Z,15.32
2022-10-13T17:58:51.409Z,15.30
2022-10-13T18:01:30.197Z,15.27
2022-10-13T18:04:00.336Z,15.24
2022-10-13T18:06:37.907Z,15.23
2022-10-13T18:09:07.380Z,15.20
2022-10-13T18:11:36.042Z,15.18
2022-10-13T18:14:02.690Z,15.16
2022-10-13T18:16:29.511Z,15.15
2022-10-13T18:18:56.157Z,15.12
2022-10-13T18:21:27.533Z,15.10
2022-10-13T18:23:58.996Z,15.06
2022-10-13T18:26:27.292Z,15.01
2022-10-13T18:28:54.220Z,14.99
2022-10-13T18:31:29.541Z,14.96
2022-10-13T18:34:02.192Z,14.94
2022-10-13T18:36:31.107Z,14.90
2022-10-13T18:39:05.784Z,14.86
2022-10-13T18:41:33.085Z,14.83
2022-10-13T18:44:00.329Z,14.79
2022-10-13T18:46:27.028Z,14.78
2022-10-13T18:48:53.554Z,14.78
2022-10-13T18:51:20.626Z,14.76
2022-10-13T18:53:48.944Z,14.76
2022-10-13T18:56:21.849Z,14.74
2022-10-13T18:58:49.181Z,14.72
2022-10-13T19:01:21.329Z,14.67
2022-10-13T19:03:50.579Z,14.63
2022-10-13T19:06:19.428Z,14.60
2022-10-13T19:08:50.972Z,14.56
2022-10-13T19:11:20.380Z,14.51
2022-10-13T19:13:48.074Z,14.47
2022-10-13T19:16:16.964Z,14.41
2022-10-13T19:18:44.285Z,14.35
2022-10-13T19:21:11.870Z,14.31
2022-10-13T19:23:39.296Z,14.25
2022-10-13T19:26:16.388Z,14.20
2022-10-13T19:28:44.222Z,14.14
2022-10-13T19:31:13.782Z,14.08
2022-10-13T19:33:44.805Z,14.01
2022-10-13T19:36:20.521Z,13.95
2022-10-13T19:38:51.281Z,13.87
2022-10-13T19:41:18.383Z,13.82
2022-10-13T19:43:46.570Z,13.75
2022-10-13T19:46:13.813Z,13.70
2022-10-13T19:48:40.299Z,13.63
2022-10-13T19:51:08.615Z,13.58
2022-10-13T19:53:36.549Z,13.53
2022-10-13T19:56:04.197Z,13.48
2022-10-13T19:58:30.842Z,13.41
2022-10-13T20:01:03.934Z,13.37
2022-10-13T20:03:30.802Z,13.33
2022-10-13T20:05:57.348Z,13.30
2022-10-13T20:08:23.962Z,13.29
2022-10-13T20:10:50.585Z,13.28
2022-10-13T20:13:17.164Z,13.29
2022-10-13T20:15:49.700Z,13.30
2022-10-13T20:18:16.330Z,13.29
2022-10-13T20:20:44.030Z,13.30
2022-10-13T20:23:10.701Z,13.28
2022-10-13T20:25:38.598Z,13.27
2022-10-13T20:28:07.256Z,13.25
2022-10-13T20:30:33.925Z,13.24
2022-10-13T20:33:00.879Z,13.22
2022-10-13T20:35:27.640Z,13.20
2022-10-13T20:37:57.652Z,13.17
2022-10-13T20:40:24.668Z,13.14
2022-10-13T20:42:52.156Z,13.09
2022-10-13T20:45:20.366Z,13.06
2022-10-13T20:47:48.613Z,13.05
2022-10-13T20:50:15.289Z,13.04
2022-10-13T20:52:41.968Z,13.05
2022-10-13T20:55:09.103Z,13.07
2022-10-13T20:57:36.562Z,13.09
2022-10-13T21:00:05.766Z,13.12
2022-10-13T21:02:32.418Z,13.14
2022-10-13T21:04:58.957Z,13.16
2022-10-13T21:07:25.638Z,13.17
2022-10-13T21:09:54.001Z,13.20
2022-10-13T21:12:21.547Z,13.21
2022-10-13T21:14:48.403Z,13.20
2022-10-13T21:17:14.972Z,13.22
2022-10-13T21:19:41.505Z,13.22
2022-10-13T21:22:08.136Z,13.21
2022-10-13T21:24:34.965Z,13.21
2022-10-13T21:34:57.803Z,13.19
2022-10-13T21:41:35.968Z,13.16
2022-10-13T21:44:03.106Z,13.14
2022-10-13T21:46:34.143Z,13.14
2022-10-13T21:49:03.256Z,13.13
2022-10-13T21:51:36.623Z,13.12
2022-10-13T21:54:11.207Z,13.12
2022-10-13T21:56:38.747Z,13.13
2022-10-13T21:59:06.653Z,13.13
2022-10-13T22:01:34.074Z,13.12
2022-10-13T22:04:02.614Z,13.12
2022-10-13T22:06:31.944Z,13.09
2022-10-13T22:09:01.450Z,13.08
2022-10-13T22:11:30.780Z,13.07
2022-10-13T22:13:58.536Z,13.08
2022-10-13T22:16:28.685Z,13.08
2022-10-13T22:18:57.130Z,13.08
2022-10-13T22:21:26.966Z,13.05
2022-10-13T22:23:57.160Z,13.03
2022-10-13T22:26:23.829Z,13.02
2022-10-13T22:28:51.707Z,13.02
2022-10-13T22:31:18.771Z,13.02
2022-10-13T22:33:46.607Z,13.03
2022-10-13T22:36:18.733Z,13.03
2022-10-13T22:38:46.590Z,13.02
2022-10-13T22:41:14.809Z,13.03
2022-10-13T22:43:44.370Z,13.01
2022-10-13T22:46:12.388Z,12.99
2022-10-13T22:48:40.860Z,12.96
2022-10-13T22:51:09.962Z,12.94
2022-10-13T22:53:37.230Z,12.93
2022-10-13T22:56:08.903Z,12.92
2022-10-13T22:58:38.233Z,12.87
2022-10-13T23:01:10.208Z,12.84
2022-10-13T23:03:37.961Z,12.81
2022-10-13T23:06:05.812Z,12.80
2022-10-13T23:08:32.711Z,12.78
2022-10-13T23:10:59.447Z,12.75
2022-10-13T23:13:28.781Z,12.76
2022-10-13T23:16:09.181Z,12.77
2022-10-13T23:18:38.153Z,12.77
2022-10-13T23:21:10.126Z,12.77
2022-10-13T23:23:36.764Z,12.79
2022-10-13T23:26:07.656Z,12.81
2022-10-13T23:28:35.219Z,12.82
2022-10-13T23:31:03.976Z,12.84
2022-10-13T23:33:30.733Z,12.87
2022-10-13T23:35:58.691Z,12.87
2022-10-13T23:38:26.574Z,12.88
2022-10-13T23:40:53.221Z,12.89
2022-10-13T23:43:20.078Z,12.89
2022-10-13T23:45:47.464Z,12.89
2022-10-13T23:48:15.224Z,12.88
2022-10-13T23:50:42.978Z,12.86
2022-10-13T23:53:09.483Z,12.84
2022-10-13T23:55:39.181Z,12.82
2022-10-13T23:58:06.512Z,12.81
